createdAt,value
2018-11-13T00:00:02.264Z,12.38
2018-11-13T00:01:02.066Z,12.45
2018-11-13T00:02:02.175Z,12.44
2018-11-13T00:03:02.900Z,12.45
2018-11-13T00:04:02.292Z,12.48
2018-11-13T00:05:01.999Z,12.46
2018-11-13T00:06:02.309Z,12.44
2018-11-13T00:07:02.044Z,12.46
2018-11-13T00:08:02.012Z,12.49
2018-11-13T00:09:02.299Z,12.51
2018-11-13T00:10:02.058Z,12.55
2018-11-13T00:11:02.094Z,12.56
2018-11-13T00:12:02.193Z,12.56
2018-11-13T00:13:02.084Z,12.56
2018-11-13T00:14:01.945Z,12.56
2018-11-13T00:15:02.251Z,12.57
2018-11-13T00:16:02.034Z,12.57
2018-11-13T00:17:02.176Z,12.57
2018-11-13T00:18:02.125Z,12.56
2018-11-13T00:19:02.031Z,12.59
2018-11-13T00:20:02.282Z,12.59
2018-11-13T00:21:02.303Z,12.57
2018-11-13T00:22:01.908Z,12.59
2018-11-13T00:23:02.082Z,12.59
2018-11-13T00:24:02.093Z,12.59
2018-11-13T00:25:01.883Z,12.59
2018-11-13T00:26:02.132Z,12.6
2018-11-13T00:27:02.025Z,12.63
2018-11-13T00:28:01.975Z,12.59
2018-11-13T00:29:02.151Z,12.56
2018-11-13T00:30:01.910Z,12.53
2018-11-13T00:31:02.022Z,12.52
2018-11-13T00:32:02.076Z,12.52
2018-11-13T00:33:01.900Z,12.55
2018-11-13T00:34:02.019Z,12.56
2018-11-13T00:35:01.956Z,12.53
2018-11-13T00:36:01.999Z,12.55
2018-11-13T00:37:02.040Z,12.55
2018-11-13T00:38:01.978Z,12.55
2018-11-13T00:39:02.142Z,12.55
2018-11-13T00:40:01.935Z,12.55
2018-11-13T00:41:01.895Z,12.56
2018-11-13T00:42:01.877Z,12.57
2018-11-13T00:43:02.048Z,12.55
2018-11-13T00:44:01.905Z,12.52
2018-11-13T00:45:02.091Z,12.42
2018-11-13T00:46:02.355Z,12.29
2018-11-13T00:47:01.878Z,12.29
2018-11-13T00:48:01.918Z,12.34
2018-11-13T00:49:03.275Z,12.38
2018-11-13T00:50:02.183Z,12.38
2018-11-13T00:51:02.093Z,12.39
2018-11-13T00:52:02.200Z,12.39
2018-11-13T00:53:02.429Z,12.39
2018-11-13T00:54:01.982Z,12.39
2018-11-13T00:55:04.091Z,12.39
2018-11-13T00:56:02.026Z,12.39
2018-11-13T00:57:02.152Z,12.41
2018-11-13T00:58:01.936Z,12.42
2018-11-13T00:59:01.943Z,12.44
2018-11-13T01:00:02.270Z,12.42
2018-11-13T01:01:02.278Z,12.38
2018-11-13T01:02:02.156Z,12.38
2018-11-13T01:03:02.000Z,12.41
2018-11-13T01:04:01.996Z,12.42
2018-11-13T01:05:02.534Z,12.42
2018-11-13T01:06:02.005Z,12.45
2018-11-13T01:07:01.879Z,12.46
2018-11-13T01:08:02.111Z,12.45
2018-11-13T01:09:01.877Z,12.44
2018-11-13T01:10:01.995Z,12.42
2018-11-13T01:11:01.858Z,12.42
2018-11-13T01:12:02.137Z,12.41
2018-11-13T01:13:01.986Z,12.37
2018-11-13T01:14:01.918Z,12.37
2018-11-13T01:15:02.229Z,12.39
2018-11-13T01:16:01.856Z,12.35
2018-11-13T01:17:02.174Z,12.37
2018-11-13T01:18:02.478Z,12.37
2018-11-13T01:19:02.802Z,12.34
2018-11-13T01:20:02.014Z,12.39
2018-11-13T01:21:02.200Z,12.42
2018-11-13T01:22:01.915Z,12.39
2018-11-13T01:23:02.126Z,12.38
2018-11-13T01:24:03.485Z,12.39
2018-11-13T01:25:02.128Z,12.38
2018-11-13T01:26:02.284Z,12.39
2018-11-13T01:27:02.306Z,12.41
2018-11-13T01:28:01.859Z,12.41
2018-11-13T01:29:02.068Z,12.41
2018-11-13T01:30:02.650Z,12.42
2018-11-13T01:31:01.956Z,12.41
2018-11-13T01:32:01.907Z,12.44
2018-11-13T01:33:01.985Z,12.45
2018-11-13T01:34:02.341Z,12.45
2018-11-13T01:35:02.641Z,12.48
2018-11-13T01:36:01.868Z,12.46
2018-11-13T01:37:01.839Z,12.45
2018-11-13T01:38:02.209Z,12.45
2018-11-13T01:39:01.938Z,12.44
2018-11-13T01:40:01.883Z,12.45
2018-11-13T01:41:02.157Z,12.45
2018-11-13T01:42:01.787Z,12.45
2018-11-13T01:43:02.040Z,12.44
2018-11-13T01:44:02.039Z,12.44
2018-11-13T01:45:01.797Z,12.44
2018-11-13T01:46:02.172Z,12.42
2018-11-13T01:47:02.011Z,12.44
2018-11-13T01:48:02.327Z,12.39
2018-11-13T01:49:01.848Z,12.37
2018-11-13T01:50:01.776Z,12.35
2018-11-13T01:51:02.101Z,12.37
2018-11-13T01:52:01.940Z,12.35
2018-11-13T01:53:02.019Z,12.37
2018-11-13T01:54:01.983Z,12.38
2018-11-13T01:55:02.309Z,12.39
2018-11-13T01:56:01.776Z,12.39
2018-11-13T01:57:01.968Z,12.41
2018-11-13T01:58:01.816Z,12.41
2018-11-13T01:59:01.779Z,12.38
2018-11-13T02:00:01.743Z,12.42
2018-11-13T02:01:01.796Z,12.37
2018-11-13T02:02:01.800Z,12.37
2018-11-13T02:03:01.784Z,12.38
2018-11-13T02:04:02.081Z,12.38
2018-11-13T02:05:01.739Z,12.42
2018-11-13T02:06:01.794Z,12.39
2018-11-13T02:07:01.818Z,12.39
2018-11-13T02:08:01.764Z,12.38
2018-11-13T02:09:01.749Z,12.37
2018-11-13T02:10:01.784Z,12.39
2018-11-13T02:11:01.802Z,12.39
2018-11-13T02:12:01.771Z,12.39
2018-11-13T02:13:01.792Z,12.38
2018-11-13T02:14:01.756Z,12.39
2018-11-13T02:15:01.755Z,12.39
2018-11-13T02:16:01.753Z,12.37
2018-11-13T02:17:01.757Z,12.39
2018-11-13T02:18:02.211Z,12.38
2018-11-13T02:19:01.819Z,12.35
2018-11-13T02:20:02.097Z,12.35
2018-11-13T02:21:01.989Z,12.38
2018-11-13T02:22:01.730Z,12.37
2018-11-13T02:23:02.014Z,12.38
2018-11-13T02:24:01.818Z,12.37
2018-11-13T02:25:01.781Z,12.39
2018-11-13T02:26:01.968Z,12.42
2018-11-13T02:27:01.966Z,12.39
2018-11-13T02:28:02.044Z,12.39
2018-11-13T02:29:02.256Z,12.38
2018-11-13T02:30:01.825Z,12.37
2018-11-13T02:31:01.724Z,12.35
2018-11-13T02:32:01.769Z,12.34
2018-11-13T02:33:01.985Z,12.34
2018-11-13T02:34:02.094Z,12.31
2018-11-13T02:35:02.142Z,12.29
2018-11-13T02:36:01.827Z,12.24
2018-11-13T02:37:01.772Z,12.24
2018-11-13T02:38:01.755Z,12.25
2018-11-13T02:39:01.729Z,12.24
2018-11-13T02:40:02.261Z,12.24
2018-11-13T02:41:01.920Z,12.28
2018-11-13T02:42:01.845Z,12.28
2018-11-13T02:43:02.172Z,12.28
2018-11-13T02:44:01.808Z,12.28
2018-11-13T02:45:02.055Z,12.28
2018-11-13T02:46:01.781Z,12.27
2018-11-13T02:47:01.826Z,12.29
2018-11-13T02:48:01.916Z,12.29
2018-11-13T02:49:01.827Z,12.32
2018-11-13T02:50:01.785Z,12.31
2018-11-13T02:51:01.733Z,12.32
2018-11-13T02:52:02.104Z,12.29
2018-11-13T02:53:01.729Z,12.32
2018-11-13T02:54:01.729Z,12.32
2018-11-13T02:55:02.038Z,12.32
2018-11-13T02:56:01.727Z,12.32
2018-11-13T02:57:01.706Z,12.32
2018-11-13T02:58:02.055Z,12.35
2018-11-13T02:59:01.792Z,12.32
2018-11-13T03:00:01.833Z,12.29
2018-11-13T03:01:01.666Z,12.31
2018-11-13T03:02:01.786Z,12.32
2018-11-13T03:03:01.705Z,12.32
2018-11-13T03:04:01.733Z,12.32
2018-11-13T03:05:02.040Z,12.31
2018-11-13T03:06:02.221Z,12.31
2018-11-13T03:07:01.724Z,12.28
2018-11-13T03:08:01.925Z,12.28
2018-11-13T03:09:01.951Z,12.25
2018-11-13T03:10:01.800Z,12.24
2018-11-13T03:11:01.805Z,12.28
2018-11-13T03:12:02.058Z,12.27
2018-11-13T03:13:01.728Z,12.28
2018-11-13T03:14:01.684Z,12.29
2018-11-13T03:15:01.803Z,12.29
2018-11-13T03:16:01.697Z,12.29
2018-11-13T03:17:01.823Z,12.28
2018-11-13T03:18:01.867Z,12.31
2018-11-13T03:19:01.755Z,12.27
2018-11-13T03:20:01.705Z,12.28
2018-11-13T03:21:01.930Z,12.28
2018-11-13T03:22:02.154Z,12.28
2018-11-13T03:23:01.675Z,12.27
2018-11-13T03:24:01.663Z,12.29
2018-11-13T03:25:01.818Z,12.29
2018-11-13T03:26:01.656Z,12.31
2018-11-13T03:27:01.833Z,12.28
2018-11-13T03:28:01.808Z,12.27
2018-11-13T03:29:01.689Z,12.28
2018-11-13T03:30:01.641Z,12.24
2018-11-13T03:31:01.789Z,12.2
2018-11-13T03:32:01.653Z,12.21
2018-11-13T03:33:01.662Z,12.21
2018-11-13T03:34:01.729Z,12.18
2018-11-13T03:35:01.651Z,12.2
2018-11-13T03:36:01.682Z,12.21
2018-11-13T03:37:01.619Z,12.2
2018-11-13T03:38:01.715Z,12.2
2018-11-13T03:39:01.643Z,12.21
2018-11-13T03:40:01.628Z,12.23
2018-11-13T03:41:01.645Z,12.2
2018-11-13T03:42:01.674Z,12.27
2018-11-13T03:43:01.632Z,12.23
2018-11-13T03:44:01.660Z,12.23
2018-11-13T03:45:01.753Z,12.21
2018-11-13T03:46:01.668Z,12.27
2018-11-13T03:47:01.686Z,12.24
2018-11-13T03:48:01.650Z,12.27
2018-11-13T03:49:02.003Z,12.27
2018-11-13T03:50:01.776Z,12.25
2018-11-13T03:51:01.943Z,12.25
2018-11-13T03:52:02.338Z,12.24
2018-11-13T03:53:02.460Z,12.24
2018-11-13T03:54:01.753Z,12.23
2018-11-13T03:55:01.769Z,12.27
2018-11-13T03:56:01.773Z,12.27
2018-11-13T03:57:01.622Z,12.29
2018-11-13T03:58:01.639Z,12.27
2018-11-13T03:59:01.711Z,12.28
2018-11-13T04:00:02.041Z,12.27
2018-11-13T04:01:01.784Z,12.27
2018-11-13T04:02:01.613Z,12.25
2018-11-13T04:03:01.688Z,12.28
2018-11-13T04:04:01.654Z,12.25
2018-11-13T04:05:01.704Z,12.27
2018-11-13T04:06:01.685Z,12.31
2018-11-13T04:07:01.735Z,12.34
2018-11-13T04:08:02.453Z,12.29
2018-11-13T04:09:01.719Z,12.34
2018-11-13T04:10:01.688Z,12.32
2018-11-13T04:11:01.775Z,12.32
2018-11-13T04:12:01.606Z,12.29
2018-11-13T04:13:01.647Z,12.29
2018-11-13T04:14:01.598Z,12.32
2018-11-13T04:15:01.588Z,12.28
2018-11-13T04:16:01.616Z,12.28
2018-11-13T04:17:01.642Z,12.29
2018-11-13T04:18:01.728Z,12.32
2018-11-13T04:19:01.739Z,12.32
2018-11-13T04:20:01.618Z,12.29
2018-11-13T04:21:01.643Z,12.27
2018-11-13T04:22:01.837Z,12.27
2018-11-13T04:23:01.684Z,12.27
2018-11-13T04:24:01.649Z,12.25
2018-11-13T04:25:02.447Z,12.21
2018-11-13T04:26:01.865Z,12.23
2018-11-13T04:27:01.818Z,12.23
2018-11-13T04:28:01.648Z,12.21
2018-11-13T04:29:01.612Z,12.23
2018-11-13T04:30:01.657Z,12.24
2018-11-13T04:31:01.641Z,12.24
2018-11-13T04:32:01.629Z,12.23
2018-11-13T04:33:01.652Z,12.23
2018-11-13T04:34:02.013Z,12.21
2018-11-13T04:35:01.687Z,12.23
2018-11-13T04:36:01.681Z,12.23
2018-11-13T04:37:01.625Z,12.2
2018-11-13T04:38:01.656Z,12.18
2018-11-13T04:39:01.623Z,12.21
2018-11-13T04:40:02.003Z,12.2
2018-11-13T04:41:01.691Z,12.2
2018-11-13T04:42:01.751Z,12.23
2018-11-13T04:43:01.643Z,12.2
2018-11-13T04:44:01.657Z,12.17
2018-11-13T04:45:01.716Z,12.21
2018-11-13T04:46:01.636Z,12.2
2018-11-13T04:47:01.791Z,12.21
2018-11-13T04:48:01.661Z,12.21
2018-11-13T04:49:01.654Z,12.21
2018-11-13T04:50:01.750Z,12.21
2018-11-13T04:51:01.606Z,12.18
2018-11-13T04:52:01.680Z,12.23
2018-11-13T04:53:01.740Z,12.23
2018-11-13T04:54:01.781Z,12.23
2018-11-13T04:55:01.836Z,12.24
2018-11-13T04:56:01.659Z,12.24
2018-11-13T04:57:01.643Z,12.25
2018-11-13T04:58:01.677Z,12.24
2018-11-13T04:59:01.712Z,12.24
2018-11-13T05:00:01.922Z,12.21
2018-11-13T05:01:01.550Z,12.25
2018-11-13T05:02:01.565Z,12.23
2018-11-13T05:03:01.868Z,12.24
2018-11-13T05:04:01.510Z,12.25
2018-11-13T05:05:01.946Z,12.24
2018-11-13T05:06:01.553Z,12.25
2018-11-13T05:07:01.532Z,12.23
2018-11-13T05:08:01.547Z,12.21
2018-11-13T05:09:01.496Z,12.21
2018-11-13T05:10:02.129Z,12.24
2018-11-13T05:11:01.516Z,12.24
2018-11-13T05:12:01.522Z,12.24
2018-11-13T05:13:01.549Z,12.21
2018-11-13T05:14:01.561Z,12.23
2018-11-13T05:15:01.540Z,12.23
2018-11-13T05:16:01.536Z,12.24
2018-11-13T05:17:01.520Z,12.21
2018-11-13T05:18:01.512Z,12.2
2018-11-13T05:19:01.534Z,12.23
2018-11-13T05:20:01.594Z,12.23
2018-11-13T05:21:01.533Z,12.23
2018-11-13T05:22:01.569Z,12.25
2018-11-13T05:23:01.814Z,12.24
2018-11-13T05:24:01.504Z,12.24
2018-11-13T05:25:01.611Z,12.24
2018-11-13T05:26:02.346Z,12.23
2018-11-13T05:27:01.525Z,12.23
2018-11-13T05:28:01.595Z,12.24
2018-11-13T05:29:01.811Z,12.23
2018-11-13T05:30:01.710Z,12.25
2018-11-13T05:31:01.572Z,12.24
2018-11-13T05:32:01.594Z,12.23
2018-11-13T05:33:01.693Z,12.21
2018-11-13T05:34:01.545Z,12.2
2018-11-13T05:35:01.696Z,12.18
2018-11-13T05:36:01.624Z,12.18
2018-11-13T05:37:01.519Z,12.18
2018-11-13T05:38:01.670Z,12.18
2018-11-13T05:39:01.547Z,12.21
2018-11-13T05:40:01.683Z,12.18
2018-11-13T05:41:01.633Z,12.21
2018-11-13T05:42:01.535Z,12.2
2018-11-13T05:43:01.500Z,12.18
2018-11-13T05:44:01.565Z,12.18
2018-11-13T05:45:01.690Z,12.21
2018-11-13T05:46:01.458Z,12.2
2018-11-13T05:47:01.737Z,12.18
2018-11-13T05:48:01.554Z,12.21
2018-11-13T05:49:01.747Z,12.18
2018-11-13T05:50:01.616Z,12.2
2018-11-13T05:51:01.506Z,12.21
2018-11-13T05:52:01.505Z,12.23
2018-11-13T05:53:01.507Z,12.23
2018-11-13T05:54:01.432Z,12.23
2018-11-13T05:55:01.492Z,12.24
2018-11-13T05:56:01.511Z,12.23
2018-11-13T05:57:01.703Z,12.24
2018-11-13T05:58:01.556Z,12.25
2018-11-13T05:59:01.619Z,12.27
2018-11-13T06:00:01.877Z,12.25
2018-11-13T06:01:01.531Z,12.27
2018-11-13T06:02:01.770Z,12.25
2018-11-13T06:03:01.493Z,12.25
2018-11-13T06:04:01.417Z,12.27
2018-11-13T06:05:01.649Z,12.24
2018-11-13T06:06:01.500Z,12.25
2018-11-13T06:07:01.507Z,12.24
2018-11-13T06:08:01.784Z,12.25
2018-11-13T06:09:01.541Z,12.27
2018-11-13T06:10:01.457Z,12.25
2018-11-13T06:11:01.913Z,12.28
2018-11-13T06:12:01.514Z,12.29
2018-11-13T06:13:01.481Z,12.29
2018-11-13T06:14:01.879Z,12.25
2018-11-13T06:15:01.485Z,12.24
2018-11-13T06:16:01.475Z,12.25
2018-11-13T06:17:01.747Z,12.25
2018-11-13T06:18:01.774Z,12.24
2018-11-13T06:19:01.488Z,12.24
2018-11-13T06:20:01.662Z,12.25
2018-11-13T06:21:01.480Z,12.27
2018-11-13T06:22:01.690Z,12.25
2018-11-13T06:23:02.219Z,12.21
2018-11-13T06:24:01.537Z,12.21
2018-11-13T06:25:01.588Z,12.24
2018-11-13T06:26:01.702Z,12.24
2018-11-13T06:27:01.411Z,12.23
2018-11-13T06:28:01.709Z,12.23
2018-11-13T06:29:01.489Z,12.25
2018-11-13T06:30:01.463Z,12.23
2018-11-13T06:31:01.606Z,12.23
2018-11-13T06:32:01.495Z,12.23
2018-11-13T06:33:01.549Z,12.27
2018-11-13T06:34:01.415Z,12.27
2018-11-13T06:35:01.416Z,12.24
2018-11-13T06:36:02.056Z,12.23
2018-11-13T06:37:01.429Z,12.21
2018-11-13T06:38:01.676Z,12.23
2018-11-13T06:39:01.701Z,12.27
2018-11-13T06:40:01.416Z,12.25
2018-11-13T06:41:01.402Z,12.24
2018-11-13T06:42:01.401Z,12.24
2018-11-13T06:43:01.837Z,12.23
2018-11-13T06:44:01.380Z,12.24
2018-11-13T06:45:01.501Z,12.24
2018-11-13T06:46:01.573Z,12.24
2018-11-13T06:47:01.398Z,12.23
2018-11-13T06:48:01.426Z,12.24
2018-11-13T06:49:01.557Z,12.24
2018-11-13T06:50:01.386Z,12.23
2018-11-13T06:51:01.404Z,12.21
2018-11-13T06:52:01.683Z,12.27
2018-11-13T06:53:01.378Z,12.23
2018-11-13T06:54:01.389Z,12.23
2018-11-13T06:55:01.389Z,12.27
2018-11-13T06:56:01.362Z,12.27
2018-11-13T06:57:01.613Z,12.29
2018-11-13T06:58:01.369Z,12.32
2018-11-13T06:59:01.365Z,12.34
2018-11-13T07:00:01.570Z,12.34
2018-11-13T07:01:01.656Z,12.32
2018-11-13T07:02:01.392Z,12.29
2018-11-13T07:03:01.447Z,12.28
2018-11-13T07:04:01.383Z,12.25
2018-11-13T07:05:01.758Z,12.27
2018-11-13T07:06:01.386Z,12.25
2018-11-13T07:07:01.996Z,12.25
2018-11-13T07:08:01.460Z,12.24
2018-11-13T07:09:01.379Z,12.24
2018-11-13T07:10:01.382Z,12.27
2018-11-13T07:11:01.573Z,12.27
2018-11-13T07:12:01.523Z,12.28
2018-11-13T07:13:01.477Z,12.23
2018-11-13T07:14:01.510Z,12.23
2018-11-13T07:15:01.513Z,12.21
2018-11-13T07:16:01.536Z,12.23
2018-11-13T07:17:01.352Z,12.21
2018-11-13T07:18:01.809Z,12.23
2018-11-13T07:19:01.341Z,12.21
2018-11-13T07:20:01.345Z,12.2
2018-11-13T07:21:01.435Z,12.23
2018-11-13T07:22:01.405Z,12.23
2018-11-13T07:23:01.417Z,12.23
2018-11-13T07:24:01.486Z,12.25
2018-11-13T07:25:01.646Z,12.23
2018-11-13T07:26:01.381Z,12.24
2018-11-13T07:27:01.613Z,12.25
2018-11-13T07:28:02.396Z,12.23
2018-11-13T07:29:01.407Z,12.23
2018-11-13T07:30:01.555Z,12.21
2018-11-13T07:31:01.567Z,12.23
2018-11-13T07:32:01.543Z,12.21
2018-11-13T07:33:01.525Z,12.24
2018-11-13T07:34:01.482Z,12.23
2018-11-13T07:35:01.683Z,12.21
2018-11-13T07:36:01.572Z,12.23
2018-11-13T07:37:01.360Z,12.23
2018-11-13T07:38:01.499Z,12.21
2018-11-13T07:39:01.405Z,12.23
2018-11-13T07:40:01.372Z,12.25
2018-11-13T07:41:01.687Z,12.23
2018-11-13T07:42:01.455Z,12.24
2018-11-13T07:43:01.370Z,12.24
2018-11-13T07:44:01.775Z,12.23
2018-11-13T07:45:01.639Z,12.23
2018-11-13T07:46:01.362Z,12.21
2018-11-13T07:47:01.637Z,12.2
2018-11-13T07:48:01.687Z,12.2
2018-11-13T07:49:01.369Z,12.2
2018-11-13T07:50:01.488Z,12.2
2018-11-13T07:51:01.431Z,12.2
2018-11-13T07:52:01.370Z,12.18
2018-11-13T07:53:01.490Z,12.2
2018-11-13T07:54:01.719Z,12.23
2018-11-13T07:55:01.527Z,12.18
2018-11-13T07:56:01.402Z,12.18
2018-11-13T07:57:01.474Z,12.18
2018-11-13T07:58:01.354Z,12.18
2018-11-13T07:59:01.337Z,12.17
2018-11-13T08:00:01.641Z,12.17
2018-11-13T08:01:01.334Z,12.16
2018-11-13T08:02:01.317Z,12.14
2018-11-13T08:03:01.264Z,12.16
2018-11-13T08:04:01.340Z,12.16
2018-11-13T08:05:01.615Z,12.17
2018-11-13T08:06:01.616Z,12.13
2018-11-13T08:07:01.399Z,12.16
2018-11-13T08:08:01.352Z,12.16
2018-11-13T08:09:01.394Z,12.16
2018-11-13T08:10:01.233Z,12.16
2018-11-13T08:11:01.339Z,12.16
2018-11-13T08:12:01.338Z,12.16
2018-11-13T08:13:01.810Z,12.16
2018-11-13T08:14:01.308Z,12.11
2018-11-13T08:15:01.316Z,12.13
2018-11-13T08:16:01.463Z,12.11
2018-11-13T08:17:01.283Z,12.16
2018-11-13T08:18:01.287Z,12.1
2018-11-13T08:19:01.309Z,12.11
2018-11-13T08:20:01.273Z,12.07
2018-11-13T08:21:01.390Z,12.05
2018-11-13T08:22:01.433Z,12
2018-11-13T08:23:01.328Z,12.03
2018-11-13T08:24:01.221Z,12.05
2018-11-13T08:25:01.387Z,12.08
2018-11-13T08:26:01.238Z,12.07
2018-11-13T08:27:01.564Z,12.05
2018-11-13T08:28:01.444Z,12.03
2018-11-13T08:29:02.298Z,12
2018-11-13T08:30:01.234Z,11.98
2018-11-13T08:31:01.255Z,12.01
2018-11-13T08:32:01.283Z,11.98
2018-11-13T08:33:01.271Z,11.96
2018-11-13T08:34:01.654Z,11.94
2018-11-13T08:35:01.853Z,11.97
2018-11-13T08:36:01.209Z,11.98
2018-11-13T08:37:01.274Z,11.97
2018-11-13T08:38:01.418Z,11.96
2018-11-13T08:39:01.314Z,11.96
2018-11-13T08:40:01.233Z,11.96
2018-11-13T08:41:01.237Z,11.94
2018-11-13T08:42:01.314Z,11.96
2018-11-13T08:43:01.379Z,11.97
2018-11-13T08:44:01.930Z,11.97
2018-11-13T08:45:01.256Z,11.97
2018-11-13T08:46:01.181Z,11.97
2018-11-13T08:47:01.232Z,11.93
2018-11-13T08:48:02.051Z,11.94
2018-11-13T08:49:01.363Z,11.93
2018-11-13T08:50:01.245Z,11.93
2018-11-13T08:51:01.310Z,11.89
2018-11-13T08:52:01.588Z,11.89
2018-11-13T08:53:01.266Z,11.92
2018-11-13T08:54:01.231Z,11.9
2018-11-13T08:55:01.628Z,11.87
2018-11-13T08:56:01.491Z,11.9
2018-11-13T08:57:01.190Z,11.89
2018-11-13T08:58:01.196Z,11.86
2018-11-13T08:59:01.919Z,11.87
2018-11-13T09:00:01.202Z,11.89
2018-11-13T09:01:01.275Z,11.86
2018-11-13T09:02:01.398Z,11.87
2018-11-13T09:03:01.346Z,11.86
2018-11-13T09:04:01.459Z,11.87
2018-11-13T09:05:01.851Z,11.9
2018-11-13T09:06:01.749Z,11.89
2018-11-13T09:07:01.448Z,11.9
2018-11-13T09:08:01.241Z,11.92
2018-11-13T09:09:01.333Z,11.92
2018-11-13T09:10:01.178Z,11.94
2018-11-13T09:11:01.406Z,11.93
2018-11-13T09:12:02.047Z,11.92
2018-11-13T09:13:01.461Z,11.9
2018-11-13T09:14:01.178Z,11.9
2018-11-13T09:15:01.175Z,11.93
2018-11-13T09:16:01.477Z,11.93
2018-11-13T09:17:01.445Z,11.96
2018-11-13T09:18:01.676Z,11.96
2018-11-13T09:19:01.600Z,11.93
2018-11-13T09:20:01.517Z,11.98
2018-11-13T09:21:01.533Z,11.98
2018-11-13T09:22:01.381Z,11.98
2018-11-13T09:23:01.270Z,11.98
2018-11-13T09:24:01.214Z,12
2018-11-13T09:25:01.146Z,12.01
2018-11-13T09:26:01.208Z,12.03
2018-11-13T09:27:01.161Z,12.01
2018-11-13T09:28:01.219Z,12.01
2018-11-13T09:29:01.179Z,12
2018-11-13T09:30:01.751Z,12.01
2018-11-13T09:31:02.117Z,12.04
2018-11-13T09:32:01.233Z,12.04
2018-11-13T09:33:01.709Z,12.05
2018-11-13T09:34:01.325Z,12.04
2018-11-13T09:35:01.441Z,12.05
2018-11-13T09:36:01.291Z,12.03
2018-11-13T09:37:01.472Z,12
2018-11-13T09:38:01.224Z,12.03
2018-11-13T09:39:01.180Z,12.04
2018-11-13T09:40:01.431Z,12.04
2018-11-13T09:41:01.213Z,12.07
2018-11-13T09:42:01.403Z,12.05
2018-11-13T09:43:01.240Z,12
2018-11-13T09:44:01.437Z,12.03
2018-11-13T09:45:01.850Z,12.04
2018-11-13T09:46:01.737Z,12.03
2018-11-13T09:47:01.149Z,12.04
2018-11-13T09:48:01.190Z,12.03
2018-11-13T09:49:01.182Z,12.04
2018-11-13T09:50:01.228Z,12.01
2018-11-13T09:51:01.222Z,12.03
2018-11-13T09:52:01.136Z,12.04
2018-11-13T09:53:01.134Z,12.01
2018-11-13T09:54:01.155Z,12.01
2018-11-13T09:55:01.180Z,12.03
2018-11-13T09:56:01.208Z,12.03
2018-11-13T09:57:01.297Z,12.04
2018-11-13T09:58:01.134Z,12
2018-11-13T09:59:01.497Z,12.01
2018-11-13T10:00:01.715Z,12.03
2018-11-13T10:01:02.395Z,12.04
2018-11-13T10:02:03.598Z,12.03
2018-11-13T10:03:04.597Z,12.03
2018-11-13T10:04:03.684Z,12.03
2018-11-13T10:05:04.505Z,12.04
2018-11-13T10:06:01.396Z,12.04
2018-11-13T10:07:01.471Z,12.03
2018-11-13T10:08:01.435Z,12.05
2018-11-13T10:09:01.135Z,12.05
2018-11-13T10:10:01.287Z,12.08
2018-11-13T10:11:01.303Z,12.07
2018-11-13T10:12:01.173Z,12.05
2018-11-13T10:13:01.444Z,12.07
2018-11-13T10:14:01.534Z,12.1
2018-11-13T10:15:01.259Z,12.08
2018-11-13T10:16:01.143Z,12.11
2018-11-13T10:17:01.195Z,12.11
2018-11-13T10:18:01.955Z,12.11
2018-11-13T10:19:01.322Z,12.14
2018-11-13T10:20:01.095Z,12.16
2018-11-13T10:21:01.122Z,12.13
2018-11-13T10:22:01.217Z,12.14
2018-11-13T10:23:01.387Z,12.18
2018-11-13T10:24:01.220Z,12.18
2018-11-13T10:25:01.254Z,12.21
2018-11-13T10:26:01.115Z,12.2
2018-11-13T10:27:01.682Z,12.24
2018-11-13T10:28:01.686Z,12.27
2018-11-13T10:29:01.187Z,12.27
2018-11-13T10:30:01.847Z,12.27
2018-11-13T10:31:01.169Z,12.28
2018-11-13T10:32:01.095Z,12.29
2018-11-13T10:33:01.362Z,12.31
2018-11-13T10:34:01.512Z,12.34
2018-11-13T10:35:01.212Z,12.32
2018-11-13T10:36:01.179Z,12.31
2018-11-13T10:37:01.901Z,12.34
2018-11-13T10:38:01.222Z,12.34
2018-11-13T10:39:01.408Z,12.37
2018-11-13T10:40:01.520Z,12.37
2018-11-13T10:41:01.649Z,12.37
2018-11-13T10:42:01.102Z,12.34
2018-11-13T10:43:01.157Z,12.32
2018-11-13T10:44:01.119Z,12.34
2018-11-13T10:45:01.086Z,12.34
2018-11-13T10:46:01.109Z,12.29
2018-11-13T10:47:01.151Z,12.29
2018-11-13T10:48:01.180Z,12.34
2018-11-13T10:49:01.403Z,12.34
2018-11-13T10:50:01.403Z,12.35
2018-11-13T10:51:01.196Z,12.32
2018-11-13T10:52:01.227Z,12.32
2018-11-13T10:53:01.093Z,12.32
2018-11-13T10:54:01.098Z,12.31
2018-11-13T10:55:01.178Z,12.31
2018-11-13T10:56:01.141Z,12.32
2018-11-13T10:57:01.638Z,12.29
2018-11-13T10:58:01.184Z,12.28
2018-11-13T10:59:01.087Z,12.31
2018-11-13T11:00:01.176Z,12.27
2018-11-13T11:01:01.334Z,12.24
2018-11-13T11:02:01.353Z,12.27
2018-11-13T11:03:01.686Z,12.23
2018-11-13T11:04:01.296Z,12.27
2018-11-13T11:05:01.179Z,12.28
2018-11-13T11:07:01.410Z,12.29
2018-11-13T11:08:01.087Z,12.28
2018-11-13T11:09:01.028Z,12.28
2018-11-13T11:10:01.505Z,12.29
2018-11-13T11:11:01.341Z,12.32
2018-11-13T11:12:01.084Z,12.31
2018-11-13T11:13:01.871Z,12.29
2018-11-13T11:14:02.282Z,12.35
2018-11-13T11:15:01.125Z,12.39
2018-11-13T11:16:01.317Z,12.44
2018-11-13T11:17:01.120Z,12.46
2018-11-13T11:18:01.339Z,12.51
2018-11-13T11:19:01.734Z,12.56
2018-11-13T11:20:01.025Z,12.63
2018-11-13T11:21:01.080Z,12.7
2018-11-13T11:22:01.051Z,12.79
2018-11-13T11:23:01.152Z,12.8
2018-11-13T11:24:01.201Z,12.82
2018-11-13T11:25:01.228Z,12.84
2018-11-13T11:26:01.082Z,12.83
2018-11-13T11:27:01.013Z,12.82
2018-11-13T11:28:01.197Z,12.79
2018-11-13T11:29:01.082Z,12.79
2018-11-13T11:30:01.068Z,12.79
2018-11-13T11:31:01.406Z,12.74
2018-11-13T11:32:00.981Z,12.73
2018-11-13T11:33:01.070Z,12.74
2018-11-13T11:34:01.061Z,12.72
2018-11-13T11:35:01.275Z,12.72
2018-11-13T11:36:01.302Z,12.73
2018-11-13T11:37:01.033Z,12.73
2018-11-13T11:38:01.061Z,12.74
2018-11-13T11:39:02.000Z,12.74
2018-11-13T11:40:01.003Z,12.7
2018-11-13T11:41:01.074Z,12.74
2018-11-13T11:42:00.976Z,12.72
2018-11-13T11:43:01.098Z,12.7
2018-11-13T11:44:00.968Z,12.69
2018-11-13T11:45:01.455Z,12.72
2018-11-13T11:47:01.562Z,12.72
2018-11-13T11:48:00.964Z,12.73
2018-11-13T11:49:01.105Z,12.74
2018-11-13T11:50:01.129Z,12.72
2018-11-13T11:51:01.533Z,12.77
2018-11-13T11:52:01.639Z,12.76
2018-11-13T11:53:00.986Z,12.82
2018-11-13T11:54:01.603Z,12.77
2018-11-13T11:55:01.213Z,12.8
2018-11-13T11:56:01.790Z,12.83
2018-11-13T11:57:01.104Z,12.8
2018-11-13T11:58:01.369Z,12.82
2018-11-13T11:59:01.175Z,12.8
2018-11-13T12:00:01.350Z,12.8
2018-11-13T12:01:01.335Z,12.8
2018-11-13T12:02:01.075Z,12.8
2018-11-13T12:03:01.156Z,12.83
2018-11-13T12:04:01.336Z,12.82
2018-11-13T12:05:01.066Z,12.82
2018-11-13T12:06:00.987Z,12.82
2018-11-13T12:07:00.949Z,12.83
2018-11-13T12:08:01.022Z,12.86
2018-11-13T12:09:01.039Z,12.86
2018-11-13T12:10:01.311Z,12.88
2018-11-13T12:11:00.939Z,12.88
2018-11-13T12:12:01.205Z,12.88
2018-11-13T12:13:01.044Z,12.88
2018-11-13T12:14:01.327Z,12.9
2018-11-13T12:15:01.033Z,12.9
2018-11-13T12:16:01.006Z,12.9
2018-11-13T12:17:01.151Z,12.91
2018-11-13T12:18:00.922Z,12.91
2018-11-13T12:19:01.749Z,12.91
2018-11-13T12:20:01.045Z,12.93
2018-11-13T12:21:01.183Z,12.91
2018-11-13T12:22:01.158Z,12.93
2018-11-13T12:23:00.945Z,12.91
2018-11-13T12:24:01.096Z,12.91
2018-11-13T12:25:01.012Z,12.9
2018-11-13T12:26:01.209Z,12.91
2018-11-13T12:27:00.955Z,12.94
2018-11-13T12:28:01.233Z,12.94
2018-11-13T12:29:01.023Z,12.96
2018-11-13T12:30:00.990Z,12.96
2018-11-13T12:31:01.181Z,12.96
2018-11-13T12:32:01.299Z,12.99
2018-11-13T12:33:01.263Z,13
2018-11-13T12:34:01.195Z,13
2018-11-13T12:35:01.050Z,13.01
2018-11-13T12:36:01.058Z,13
2018-11-13T12:37:01.069Z,13
2018-11-13T12:38:01.203Z,12.99
2018-11-13T12:39:01.029Z,13
2018-11-13T12:40:00.970Z,13
2018-11-13T12:41:01.704Z,13
2018-11-13T12:42:01.287Z,13
2018-11-13T12:43:00.967Z,12.99
2018-11-13T12:44:01.019Z,13
2018-11-13T12:45:01.086Z,13.03
2018-11-13T12:46:01.308Z,12.99
2018-11-13T12:47:01.034Z,13.01
2018-11-13T12:48:01.019Z,13.03
2018-11-13T12:49:02.115Z,13.04
2018-11-13T12:50:01.445Z,13.04
2018-11-13T12:51:01.231Z,13.04
2018-11-13T12:52:01.188Z,13.07
2018-11-13T12:53:00.868Z,13.11
2018-11-13T12:54:01.016Z,13.1
2018-11-13T12:55:00.951Z,13.11
2018-11-13T12:56:01.150Z,13.13
2018-11-13T12:57:00.929Z,13.13